sensor_id;sensor_type;location;lat;lon;timestamp;temperature;humidity
46488;DHT22;32202;48.780;9.204;2022-12-18T00:01:29;-5.90;99.90
46488;DHT22;32202;48.780;9.204;2022-12-18T00:03:56;-5.90;99.90
46488;DHT22;32202;48.780;9.204;2022-12-18T00:06:23;-5.90;99.90
46488;DHT22;32202;48.780;9.204;2022-12-18T00:08:49;-5.90;99.90
46488;DHT22;32202;48.780;9.204;2022-12-18T00:11:19;-6.00;99.90
46488;DHT22;32202;48.780;9.204;2022-12-18T00:13:45;-6.00;99.90
46488;DHT22;32202;48.780;9.204;2022-12-18T00:16:13;-6.00;99.90
46488;DHT22;32202;48.780;9.204;2022-12-18T00:18:39;-5.90;99.90
46488;DHT22;32202;48.780;9.204;2022-12-18T00:21:06;-5.90;99.90
46488;DHT22;32202;48.780;9.204;2022-12-18T00:23:33;-5.90;99.90
46488;DHT22;32202;48.780;9.204;2022-12-18T00:26:01;-5.90;99.90
46488;DHT22;32202;48.780;9.204;2022-12-18T00:28:27;-6.00;99.90
46488;DHT22;32202;48.780;9.204;2022-12-18T00:31:06;-6.00;99.90
46488;DHT22;32202;48.780;9.204;2022-12-18T00:33:33;-6.00;99.90
46488;DHT22;32202;48.780;9.204;2022-12-18T00:36:22;-6.00;99.90
46488;DHT22;32202;48.780;9.204;2022-12-18T00:38:48;-5.90;99.90
46488;DHT22;32202;48.780;9.204;2022-12-18T00:41:15;-6.00;99.90
46488;DHT22;32202;48.780;9.204;2022-12-18T00:44:00;-6.00;99.90
46488;DHT22;32202;48.780;9.204;2022-12-18T00:46:25;-6.00;99.90
46488;DHT22;32202;48.780;9.204;2022-12-18T00:48:51;-6.00;99.90
46488;DHT22;32202;48.780;9.204;2022-12-18T00:51:16;-6.00;99.90
46488;DHT22;32202;48.780;9.204;2022-12-18T00:53:42;-6.00;99.90
46488;DHT22;32202;48.780;9.204;2022-12-18T00:56:08;-6.00;99.90
46488;DHT22;32202;48.780;9.204;2022-12-18T00:58:33;-6.10;99.90
46488;DHT22;32202;48.780;9.204;2022-12-18T01:00:59;-6.20;99.90
46488;DHT22;32202;48.780;9.204;2022-12-18T01:03:24;-6.20;99.90
46488;DHT22;32202;48.780;9.204;2022-12-18T01:05:51;-6.20;99.90
46488;DHT22;32202;48.780;9.204;2022-12-18T01:08:17;-6.20;99.90
46488;DHT22;32202;48.780;9.204;2022-12-18T01:10:42;-6.20;99.90
46488;DHT22;32202;48.780;9.204;2022-12-18T01:13:08;-6.10;99.90
46488;DHT22;32202;48.780;9.204;2022-12-18T01:15:34;-6.10;99.90
46488;DHT22;32202;48.780;9.204;2022-12-18T01:17:59;-6.10;99.90
46488;DHT22;32202;48.780;9.204;2022-12-18T01:20:25;-6.20;99.90
46488;DHT22;32202;48.780;9.204;2022-12-18T01:22:50;-6.10;99.90
46488;DHT22;32202;48.780;9.204;2022-12-18T01:25:16;-6.10;99.90
46488;DHT22;32202;48.780;9.204;2022-12-18T01:27:42;-6.10;99.90
46488;DHT22;32202;48.780;9.204;2022-12-18T01:30:08;-6.00;99.90
46488;DHT22;32202;48.780;9.204;2022-12-18T01:32:34;-6.00;99.90
46488;DHT22;32202;48.780;9.204;2022-12-18T01:34:59;-6.00;99.90
46488;DHT22;32202;48.780;9.204;2022-12-18T01:37:25;-5.90;99.90
46488;DHT22;32202;48.780;9.204;2022-12-18T01:39:52;-5.90;99.90
46488;DHT22;32202;48.780;9.204;2022-12-18T01:42:19;-5.80;99.90
46488;DHT22;32202;48.780;9.204;2022-12-18T01:44:53;-5.90;99.90
46488;DHT22;32202;48.780;9.204;2022-12-18T01:50:32;-5.90;99.90
46488;DHT22;32202;48.780;9.204;2022-12-18T01:55:43;-5.80;99.90
46488;DHT22;32202;48.780;9.204;2022-12-18T01:58:10;-5.70;99.90
46488;DHT22;32202;48.780;9.204;2022-12-18T02:00:36;-5.70;99.90
46488;DHT22;32202;48.780;9.204;2022-12-18T02:03:01;-5.70;99.90
46488;DHT22;32202;48.780;9.204;2022-12-18T02:11:20;-5.80;99.90
46488;DHT22;32202;48.780;9.204;2022-12-18T02:14:04;-5.70;99.90
46488;DHT22;32202;48.780;9.204;2022-12-18T02:16:43;-5.70;99.90
46488;DHT22;32202;48.780;9.204;2022-12-18T02:19:21;-5.70;99.90
46488;DHT22;32202;48.780;9.204;2022-12-18T02:25:12;-5.60;99.90
46488;DHT22;32202;48.780;9.204;2022-12-18T02:27:39;-5.50;99.90
46488;DHT22;32202;48.780;9.204;2022-12-18T02:30:07;-5.40;99.90
46488;DHT22;32202;48.780;9.204;2022-12-18T02:32:43;-5.30;99.50
46488;DHT22;32202;48.780;9.204;2022-12-18T02:35:15;-5.30;99.20
46488;DHT22;32202;48.780;9.204;2022-12-18T02:37:43;-5.30;98.70
46488;DHT22;32202;48.780;9.204;2022-12-18T02:40:11;-5.30;99.10
46488;DHT22;32202;48.780;9.204;2022-12-18T02:42:38;-5.30;98.80
46488;DHT22;32202;48.780;9.204;2022-12-18T02:45:04;-5.40;98.80
46488;DHT22;32202;48.780;9.204;2022-12-18T02:47:32;-5.50;98.70
46488;DHT22;32202;48.780;9.204;2022-12-18T02:50:17;-5.50;99.20
46488;DHT22;32202;48.780;9.204;2022-12-18T02:52:53;-5.50;99.20
46488;DHT22;32202;48.780;9.204;2022-12-18T02:58:07;-5.60;99.00
46488;DHT22;32202;48.780;9.204;2022-12-18T03:03:26;-5.70;99.00
46488;DHT22;32202;48.780;9.204;2022-12-18T03:08:46;-5.60;99.40
46488;DHT22;32202;48.780;9.204;2022-12-18T03:11:14;-5.70;99.20
46488;DHT22;32202;48.780;9.204;2022-12-18T03:16:12;-5.80;99.30
46488;DHT22;32202;48.780;9.204;2022-12-18T03:18:49;-5.70;99.40
46488;DHT22;32202;48.780;9.204;2022-12-18T03:21:21;-5.80;99.30
46488;DHT22;32202;48.780;9.204;2022-12-18T03:23:49;-5.90;99.90
46488;DHT22;32202;48.780;9.204;2022-12-18T03:26:19;-5.80;99.80
46488;DHT22;32202;48.780;9.204;2022-12-18T03:28:52;-5.80;99.60
46488;DHT22;32202;48.780;9.204;2022-12-18T03:31:21;-5.70;99.00
46488;DHT22;32202;48.780;9.204;2022-12-18T03:33:54;-5.70;99.20
46488;DHT22;32202;48.780;9.204;2022-12-18T03:36:20;-5.80;99.20
46488;DHT22;32202;48.780;9.204;2022-12-18T03:38:46;-5.80;99.40
46488;DHT22;32202;48.780;9.204;2022-12-18T03:41:34;-5.80;99.30
46488;DHT22;32202;48.780;9.204;2022-12-18T03:47:04;-5.80;99.20
46488;DHT22;32202;48.780;9.204;2022-12-18T03:52:24;-5.90;99.50
46488;DHT22;32202;48.780;9.204;2022-12-18T03:54:52;-5.90;99.00
46488;DHT22;32202;48.780;9.204;2022-12-18T03:57:22;-6.10;99.40
46488;DHT22;32202;48.780;9.204;2022-12-18T03:59:51;-6.00;99.60
46488;DHT22;32202;48.780;9.204;2022-12-18T04:02:19;-6.10;99.50
46488;DHT22;32202;48.780;9.204;2022-12-18T04:04:46;-6.20;99.40
46488;DHT22;32202;48.780;9.204;2022-12-18T04:07:13;-6.30;99.00
46488;DHT22;32202;48.780;9.204;2022-12-18T04:09:40;-6.50;99.10
46488;DHT22;32202;48.780;9.204;2022-12-18T04:12:08;-6.70;99.50
46488;DHT22;32202;48.780;9.204;2022-12-18T04:14:34;-6.80;99.90
46488;DHT22;32202;48.780;9.204;2022-12-18T04:17:01;-6.80;99.90
46488;DHT22;32202;48.780;9.204;2022-12-18T04:19:27;-6.70;99.90
46488;DHT22;32202;48.780;9.204;2022-12-18T04:21:53;-6.80;99.90
46488;DHT22;32202;48.780;9.204;2022-12-18T04:24:19;-6.70;99.90
46488;DHT22;32202;48.780;9.204;2022-12-18T04:26:45;-6.80;99.90
46488;DHT22;32202;48.780;9.204;2022-12-18T04:29:11;-6.80;99.90
46488;DHT22;32202;48.780;9.204;2022-12-18T04:31:36;-6.90;99.90
46488;DHT22;32202;48.780;9.204;2022-12-18T04:34:02;-7.00;99.90
46488;DHT22;32202;48.780;9.204;2022-12-18T04:36:28;-7.00;99.90
46488;DHT22;32202;48.780;9.204;2022-12-18T04:38:53;-7.10;99.90
46488;DHT22;32202;48.780;9.204;2022-12-18T04:41:19;-7.10;99.90
46488;DHT22;32202;48.780;9.204;2022-12-18T04:43:45;-7.10;99.90
46488;DHT22;32202;48.780;9.204;2022-12-18T04:46:10;-7.10;99.90
46488;DHT22;32202;48.780;9.204;2022-12-18T04:48:36;-7.10;99.90
46488;DHT22;32202;48.780;9.204;2022-12-18T04:51:03;-7.20;99.90
46488;DHT22;32202;48.780;9.204;2022-12-18T04:53:28;-7.20;99.90
46488;DHT22;32202;48.780;9.204;2022-12-18T04:58:34;-7.30;99.90
46488;DHT22;32202;48.780;9.204;2022-12-18T05:00:59;-7.30;99.90
46488;DHT22;32202;48.780;9.204;2022-12-18T05:03:25;-7.40;99.90
46488;DHT22;32202;48.780;9.204;2022-12-18T05:05:51;-7.40;99.90
46488;DHT22;32202;48.780;9.204;2022-12-18T05:08:17;-7.40;99.90
46488;DHT22;32202;48.780;9.204;2022-12-18T05:10:43;-7.40;99.90
46488;DHT22;32202;48.780;9.204;2022-12-18T05:13:09;-7.30;99.90
46488;DHT22;32202;48.780;9.204;2022-12-18T05:15:34;-7.30;99.90
46488;DHT22;32202;48.780;9.204;2022-12-18T05:18:01;-7.20;99.90
46488;DHT22;32202;48.780;9.204;2022-12-18T05:20:27;-7.10;99.90
46488;DHT22;32202;48.780;9.204;2022-12-18T05:22:53;-7.10;99.90
46488;DHT22;32202;48.780;9.204;2022-12-18T05:25:20;-7.20;99.90
46488;DHT22;32202;48.780;9.204;2022-12-18T05:27:46;-7.20;99.90
46488;DHT22;32202;48.780;9.204;2022-12-18T05:30:12;-7.30;99.90
46488;DHT22;32202;48.780;9.204;2022-12-18T05:32:38;-7.30;99.90
46488;DHT22;32202;48.780;9.204;2022-12-18T05:35:05;-7.40;99.90
46488;DHT22;32202;48.780;9.204;2022-12-18T05:37:31;-7.50;99.90
46488;DHT22;32202;48.780;9.204;2022-12-18T05:39:56;-7.50;99.90
46488;DHT22;32202;48.780;9.204;2022-12-18T05:42:22;-7.50;99.90
46488;DHT22;32202;48.780;9.204;2022-12-18T05:44:47;-7.60;99.90
46488;DHT22;32202;48.780;9.204;2022-12-18T05:47:13;-7.70;99.90
46488;DHT22;32202;48.780;9.204;2022-12-18T05:49:39;-7.70;99.90
46488;DHT22;32202;48.780;9.204;2022-12-18T05:52:04;-7.80;99.90
46488;DHT22;32202;48.780;9.204;2022-12-18T05:54:30;-7.90;99.90
46488;DHT22;32202;48.780;9.204;2022-12-18T05:56:56;-8.00;99.90
46488;DHT22;32202;48.780;9.204;2022-12-18T05:59:22;-8.00;99.90
46488;DHT22;32202;48.780;9.204;2022-12-18T06:01:48;-8.00;99.90
46488;DHT22;32202;48.780;9.204;2022-12-18T06:04:14;-7.90;99.90
46488;DHT22;32202;48.780;9.204;2022-12-18T06:06:39;-7.80;99.90
46488;DHT22;32202;48.780;9.204;2022-12-18T06:09:05;-7.70;99.90
46488;DHT22;32202;48.780;9.204;2022-12-18T06:11:35;-7.70;99.80
46488;DHT22;32202;48.780;9.204;2022-12-18T06:14:02;-7.70;99.90
46488;DHT22;32202;48.780;9.204;2022-12-18T06:16:28;-7.80;99.90
46488;DHT22;32202;48.780;9.204;2022-12-18T06:18:56;-7.80;99.90
46488;DHT22;32202;48.780;9.204;2022-12-18T06:21:22;-7.90;99.90
46488;DHT22;32202;48.780;9.204;2022-12-18T06:23:47;-8.10;99.90
46488;DHT22;32202;48.780;9.204;2022-12-18T06:26:13;-8.10;99.90
46488;DHT22;32202;48.780;9.204;2022-12-18T06:28:39;-8.10;99.90
46488;DHT22;32202;48.780;9.204;2022-12-18T06:31:06;-8.10;99.90
46488;DHT22;32202;48.780;9.204;2022-12-18T06:33:32;-8.10;99.90
46488;DHT22;32202;48.780;9.204;2022-12-18T06:36:08;-8.10;99.90
46488;DHT22;32202;48.780;9.204;2022-12-18T06:38:36;-8.10;99.90
46488;DHT22;32202;48.780;9.204;2022-12-18T06:41:13;-8.10;99.90
46488;DHT22;32202;48.780;9.204;2022-12-18T06:43:39;-8.10;99.90
46488;DHT22;32202;48.780;9.204;2022-12-18T06:46:05;-8.00;99.90
46488;DHT22;32202;48.780;9.204;2022-12-18T06:48:31;-8.00;99.90
46488;DHT22;32202;48.780;9.204;2022-12-18T06:50:57;-8.00;99.90
46488;DHT22;32202;48.780;9.204;2022-12-18T06:53:23;-8.00;99.90
46488;DHT22;32202;48.780;9.204;2022-12-18T06:55:49;-8.00;99.90
46488;DHT22;32202;48.780;9.204;2022-12-18T06:58:15;-8.00;99.90
46488;DHT22;32202;48.780;9.204;2022-12-18T07:00:41;-7.90;99.90
46488;DHT22;32202;48.780;9.204;2022-12-18T07:03:06;-7.60;99.90
46488;DHT22;32202;48.780;9.204;2022-12-18T07:05:32;-7.50;99.90
46488;DHT22;32202;48.780;9.204;2022-12-18T07:07:59;-7.50;99.90
46488;DHT22;32202;48.780;9.204;2022-12-18T07:10:25;-7.50;99.90
46488;DHT22;32202;48.780;9.204;2022-12-18T07:12:51;-7.40;99.90
46488;DHT22;32202;48.780;9.204;2022-12-18T07:15:17;-7.30;99.90
46488;DHT22;32202;48.780;9.204;2022-12-18T07:17:42;-7.30;99.90
46488;DHT22;32202;48.780;9.204;2022-12-18T07:20:08;-7.30;99.90
46488;DHT22;32202;48.780;9.204;2022-12-18T07:22:34;-7.20;99.90
46488;DHT22;32202;48.780;9.204;2022-12-18T07:25:00;-7.10;99.90
46488;DHT22;32202;48.780;9.204;2022-12-18T07:27:25;-6.90;99.20
46488;DHT22;32202;48.780;9.204;2022-12-18T07:29:51;-6.90;98.50
46488;DHT22;32202;48.780;9.204;2022-12-18T07:32:16;-6.80;97.80
46488;DHT22;32202;48.780;9.204;2022-12-18T07:34:42;-6.70;97.10
46488;DHT22;32202;48.780;9.204;2022-12-18T07:37:07;-6.60;96.40
46488;DHT22;32202;48.780;9.204;2022-12-18T07:39:33;-6.60;95.70
46488;DHT22;32202;48.780;9.204;2022-12-18T07:41:59;-6.60;95.30
46488;DHT22;32202;48.780;9.204;2022-12-18T07:44:43;-6.50;94.80
46488;DHT22;32202;48.780;9.204;2022-12-18T07:47:08;-6.50;94.40
46488;DHT22;32202;48.780;9.204;2022-12-18T07:49:34;-6.40;93.90
46488;DHT22;32202;48.780;9.204;2022-12-18T07:51:59;-6.40;93.60
46488;DHT22;32202;48.780;9.204;2022-12-18T07:54:25;-6.50;93.30
46488;DHT22;32202;48.780;9.204;2022-12-18T07:56:51;-6.50;93.40
46488;DHT22;32202;48.780;9.204;2022-12-18T07:59:17;-6.40;92.90
46488;DHT22;32202;48.780;9.204;2022-12-18T08:01:44;-6.40;92.80
46488;DHT22;32202;48.780;9.204;2022-12-18T08:04:10;-6.30;92.80
46488;DHT22;32202;48.780;9.204;2022-12-18T08:06:35;-6.30;92.80
46488;DHT22;32202;48.780;9.204;2022-12-18T08:09:01;-6.20;92.60
46488;DHT22;32202;48.780;9.204;2022-12-18T08:11:28;-6.10;92.20
46488;DHT22;32202;48.780;9.204;2022-12-18T08:13:54;-6.10;92.20
46488;DHT22;32202;48.780;9.204;2022-12-18T08:16:20;-6.00;92.00
46488;DHT22;32202;48.780;9.204;2022-12-18T08:18:47;-5.90;91.90
46488;DHT22;32202;48.780;9.204;2022-12-18T08:21:27;-5.80;91.60
46488;DHT22;32202;48.780;9.204;2022-12-18T08:23:55;-5.70;90.80
46488;DHT22;32202;48.780;9.204;2022-12-18T08:26:22;-5.70;90.40
46488;DHT22;32202;48.780;9.204;2022-12-18T08:28:49;-5.60;90.50
46488;DHT22;32202;48.780;9.204;2022-12-18T08:31:15;-5.50;90.50
46488;DHT22;32202;48.780;9.204;2022-12-18T08:33:41;-5.40;90.40
46488;DHT22;32202;48.780;9.204;2022-12-18T08:36:08;-5.30;90.20
46488;DHT22;32202;48.780;9.204;2022-12-18T08:38:34;-5.20;90.00
46488;DHT22;32202;48.780;9.204;2022-12-18T08:41:07;-5.00;89.80
46488;DHT22;32202;48.780;9.204;2022-12-18T08:43:33;-4.80;89.20
46488;DHT22;32202;48.780;9.204;2022-12-18T08:46:18;-4.70;88.50
46488;DHT22;32202;48.780;9.204;2022-12-18T08:48:44;-4.60;88.20
46488;DHT22;32202;48.780;9.204;2022-12-18T08:51:10;-4.50;87.80
46488;DHT22;32202;48.780;9.204;2022-12-18T08:53:36;-4.50;87.90
46488;DHT22;32202;48.780;9.204;2022-12-18T08:56:03;-4.40;87.20
46488;DHT22;32202;48.780;9.204;2022-12-18T08:58:29;-4.40;86.80
46488;DHT22;32202;48.780;9.204;2022-12-18T09:01:03;-4.40;86.70
46488;DHT22;32202;48.780;9.204;2022-12-18T09:03:29;-4.30;86.10
46488;DHT22;32202;48.780;9.204;2022-12-18T09:05:54;-4.30;85.70
46488;DHT22;32202;48.780;9.204;2022-12-18T09:08:20;-4.30;85.00
46488;DHT22;32202;48.780;9.204;2022-12-18T09:10:48;-4.30;85.60
46488;DHT22;32202;48.780;9.204;2022-12-18T09:13:15;-4.30;85.50
46488;DHT22;32202;48.780;9.204;2022-12-18T09:15:46;-4.20;85.60
46488;DHT22;32202;48.780;9.204;2022-12-18T09:18:12;-4.20;85.30
46488;DHT22;32202;48.780;9.204;2022-12-18T09:20:39;-4.10;84.60
46488;DHT22;32202;48.780;9.204;2022-12-18T09:23:05;-4.00;84.50
46488;DHT22;32202;48.780;9.204;2022-12-18T09:25:32;-3.90;83.80
46488;DHT22;32202;48.780;9.204;2022-12-18T09:28:18;-3.90;83.20
46488;DHT22;32202;48.780;9.204;2022-12-18T09:30:48;-3.70;83.20
46488;DHT22;32202;48.780;9.204;2022-12-18T09:33:14;-3.60;82.20
46488;DHT22;32202;48.780;9.204;2022-12-18T09:35:41;-3.40;81.40
46488;DHT22;32202;48.780;9.204;2022-12-18T09:38:16;-2.50;80.60
46488;DHT22;32202;48.780;9.204;2022-12-18T09:40:44;-0.20;73.80
46488;DHT22;32202;48.780;9.204;2022-12-18T09:46:04;5.10;54.90
46488;DHT22;32202;48.780;9.204;2022-12-18T09:48:41;6.90;49.50
46488;DHT22;32202;48.780;9.204;2022-12-18T09:51:47;8.50;45.90
46488;DHT22;32202;48.780;9.204;2022-12-18T09:54:22;9.50;43.60
46488;DHT22;32202;48.780;9.204;2022-12-18T09:56:49;10.50;41.30
46488;DHT22;32202;48.780;9.204;2022-12-18T09:59:25;11.20;40.40
46488;DHT22;32202;48.780;9.204;2022-12-18T10:01:52;11.70;40.60
46488;DHT22;32202;48.780;9.204;2022-12-18T10:04:18;12.10;39.10
46488;DHT22;32202;48.780;9.204;2022-12-18T10:07:02;12.70;39.80
46488;DHT22;32202;48.780;9.204;2022-12-18T10:09:37;13.70;37.90
46488;DHT22;32202;48.780;9.204;2022-12-18T10:12:38;14.30;36.80
46488;DHT22;32202;48.780;9.204;2022-12-18T10:17:41;15.70;34.80
46488;DHT22;32202;48.780;9.204;2022-12-18T10:22:50;16.80;33.60
46488;DHT22;32202;48.780;9.204;2022-12-18T10:25:30;17.00;33.50
46488;DHT22;32202;48.780;9.204;2022-12-18T10:28:07;16.90;33.30
46488;DHT22;32202;48.780;9.204;2022-12-18T10:30:33;17.00;33.00
46488;DHT22;32202;48.780;9.204;2022-12-18T10:33:02;17.40;32.90
46488;DHT22;32202;48.780;9.204;2022-12-18T10:35:28;17.90;31.80
46488;DHT22;32202;48.780;9.204;2022-12-18T10:38:01;18.00;31.40
46488;DHT22;32202;48.780;9.204;2022-12-18T10:40:27;18.10;31.30
46488;DHT22;32202;48.780;9.204;2022-12-18T10:43:11;18.00;31.30
46488;DHT22;32202;48.780;9.204;2022-12-18T10:45:37;18.10;31.10
46488;DHT22;32202;48.780;9.204;2022-12-18T10:48:21;18.10;31.20
46488;DHT22;32202;48.780;9.204;2022-12-18T10:50:49;17.80;31.60
46488;DHT22;32202;48.780;9.204;2022-12-18T10:53:25;17.60;31.30
46488;DHT22;32202;48.780;9.204;2022-12-18T10:55:54;17.10;31.50
46488;DHT22;32202;48.780;9.204;2022-12-18T11:03:38;16.00;33.40
46488;DHT22;32202;48.780;9.204;2022-12-18T11:06:15;16.00;33.50
46488;DHT22;32202;48.780;9.204;2022-12-18T11:08:43;16.60;33.00
46488;DHT22;32202;48.780;9.204;2022-12-18T11:11:20;17.10;32.40
46488;DHT22;32202;48.780;9.204;2022-12-18T11:16:34;17.30;32.40
46488;DHT22;32202;48.780;9.204;2022-12-18T11:21:41;17.90;32.00
46488;DHT22;32202;48.780;9.204;2022-12-18T11:26:54;18.10;31.70
46488;DHT22;32202;48.780;9.204;2022-12-18T11:29:29;18.20;31.70
46488;DHT22;32202;48.780;9.204;2022-12-18T11:34:44;18.60;31.90
46488;DHT22;32202;48.780;9.204;2022-12-18T11:37:13;19.20;31.20
46488;DHT22;32202;48.780;9.204;2022-12-18T11:39:44;19.50;31.00
46488;DHT22;32202;48.780;9.204;2022-12-18T11:42:21;19.50;30.90
46488;DHT22;32202;48.780;9.204;2022-12-18T11:44:59;19.20;31.10
46488;DHT22;32202;48.780;9.204;2022-12-18T11:47:59;18.80;31.60
46488;DHT22;32202;48.780;9.204;2022-12-18T11:51:05;18.70;31.60
46488;DHT22;32202;48.780;9.204;2022-12-18T11:53:33;18.20;32.10
46488;DHT22;32202;48.780;9.204;2022-12-18T11:56:26;18.00;32.50
46488;DHT22;32202;48.780;9.204;2022-12-18T11:59:17;18.20;32.30
46488;DHT22;32202;48.780;9.204;2022-12-18T12:04:40;17.70;32.90
46488;DHT22;32202;48.780;9.204;2022-12-18T12:18:18;14.20;36.20
46488;DHT22;32202;48.780;9.204;2022-12-18T12:24:23;11.40;39.80
46488;DHT22;32202;48.780;9.204;2022-12-18T12:40:17;7.50;47.30
46488;DHT22;32202;48.780;9.204;2022-12-18T12:42:50;7.30;48.00
46488;DHT22;32202;48.780;9.204;2022-12-18T12:51:20;6.60;49.50
46488;DHT22;32202;48.780;9.204;2022-12-18T12:53:47;5.70;51.00
46488;DHT22;32202;48.780;9.204;2022-12-18T12:56:15;5.00;53.40
46488;DHT22;32202;48.780;9.204;2022-12-18T12:59:10;4.80;54.00
46488;DHT22;32202;48.780;9.204;2022-12-18T13:04:28;4.90;53.90
46488;DHT22;32202;48.780;9.204;2022-12-18T13:10:22;5.00;53.70
46488;DHT22;32202;48.780;9.204;2022-12-18T13:12:57;5.20;54.00
46488;DHT22;32202;48.780;9.204;2022-12-18T13:15:31;5.20;53.80
46488;DHT22;32202;48.780;9.204;2022-12-18T13:20:39;5.20;54.40
46488;DHT22;32202;48.780;9.204;2022-12-18T13:23:27;5.30;54.90
46488;DHT22;32202;48.780;9.204;2022-12-18T13:25:55;5.40;54.40
46488;DHT22;32202;48.780;9.204;2022-12-18T13:31:14;5.40;53.90
46488;DHT22;32202;48.780;9.204;2022-12-18T13:33:44;5.30;54.20
46488;DHT22;32202;48.780;9.204;2022-12-18T13:36:16;5.30;54.80
46488;DHT22;32202;48.780;9.204;2022-12-18T13:41:37;5.30;55.10
46488;DHT22;32202;48.780;9.204;2022-12-18T13:44:32;5.30;55.20
46488;DHT22;32202;48.780;9.204;2022-12-18T13:46:59;5.20;55.30
46488;DHT22;32202;48.780;9.204;2022-12-18T13:49:41;5.10;55.40
46488;DHT22;32202;48.780;9.204;2022-12-18T13:52:21;4.90;57.20
46488;DHT22;32202;48.780;9.204;2022-12-18T13:54:51;4.80;57.40
46488;DHT22;32202;48.780;9.204;2022-12-18T14:00:14;4.70;56.80
46488;DHT22;32202;48.780;9.204;2022-12-18T14:02:45;4.60;56.70
46488;DHT22;32202;48.780;9.204;2022-12-18T14:07:53;4.40;57.60
46488;DHT22;32202;48.780;9.204;2022-12-18T14:10:19;4.40;58.00
46488;DHT22;32202;48.780;9.204;2022-12-18T14:12:48;4.30;58.20
46488;DHT22;32202;48.780;9.204;2022-12-18T14:15:32;4.20;58.40
46488;DHT22;32202;48.780;9.204;2022-12-18T14:20:49;3.90;59.30
46488;DHT22;32202;48.780;9.204;2022-12-18T14:25:52;3.70;60.40
46488;DHT22;32202;48.780;9.204;2022-12-18T14:28:18;3.50;60.90
46488;DHT22;32202;48.780;9.204;2022-12-18T14:30:45;3.40;61.30
46488;DHT22;32202;48.780;9.204;2022-12-18T14:33:14;3.30;62.00
46488;DHT22;32202;48.780;9.204;2022-12-18T14:35:42;3.00;62.50
46488;DHT22;32202;48.780;9.204;2022-12-18T14:38:36;2.80;63.50
46488;DHT22;32202;48.780;9.204;2022-12-18T14:41:14;2.70;64.30
46488;DHT22;32202;48.780;9.204;2022-12-18T14:43:42;2.50;65.20
46488;DHT22;32202;48.780;9.204;2022-12-18T14:46:28;2.20;65.90
46488;DHT22;32202;48.780;9.204;2022-12-18T14:48:54;2.00;67.20
46488;DHT22;32202;48.780;9.204;2022-12-18T14:51:22;1.90;67.90
46488;DHT22;32202;48.780;9.204;2022-12-18T14:53:59;1.50;69.10
46488;DHT22;32202;48.780;9.204;2022-12-18T14:56:34;1.30;70.80
46488;DHT22;32202;48.780;9.204;2022-12-18T14:59:05;1.10;71.40
46488;DHT22;32202;48.780;9.204;2022-12-18T15:01:44;0.90;72.40
46488;DHT22;32202;48.780;9.204;2022-12-18T15:04:31;0.50;74.20
46488;DHT22;32202;48.780;9.204;2022-12-18T15:09:35;0.00;77.60
46488;DHT22;32202;48.780;9.204;2022-12-18T15:12:02;-0.20;79.10
46488;DHT22;32202;48.780;9.204;2022-12-18T15:17:20;-0.40;81.50
46488;DHT22;32202;48.780;9.204;2022-12-18T15:19:48;-0.50;82.50
46488;DHT22;32202;48.780;9.204;2022-12-18T15:22:34;-0.60;83.20
46488;DHT22;32202;48.780;9.204;2022-12-18T15:25:02;-0.70;84.70
46488;DHT22;32202;48.780;9.204;2022-12-18T15:27:33;-0.80;85.80
46488;DHT22;32202;48.780;9.204;2022-12-18T15:32:39;-1.00;88.00
46488;DHT22;32202;48.780;9.204;2022-12-18T15:37:40;-1.20;90.20
46488;DHT22;32202;48.780;9.204;2022-12-18T15:40:07;-1.20;90.60
46488;DHT22;32202;48.780;9.204;2022-12-18T15:42:33;-1.20;91.10
46488;DHT22;32202;48.780;9.204;2022-12-18T15:45:17;-1.20;91.20
46488;DHT22;32202;48.780;9.204;2022-12-18T15:47:43;-1.20;91.40
46488;DHT22;32202;48.780;9.204;2022-12-18T15:50:09;-1.30;91.40
46488;DHT22;32202;48.780;9.204;2022-12-18T15:52:40;-1.30;91.60
46488;DHT22;32202;48.780;9.204;2022-12-18T15:55:18;-1.30;91.70
46488;DHT22;32202;48.780;9.204;2022-12-18T15:58:07;-1.30;92.10
46488;DHT22;32202;48.780;9.204;2022-12-18T16:00:35;-1.30;92.10
46488;DHT22;32202;48.780;9.204;2022-12-18T16:03:03;-1.30;92.30
46488;DHT22;32202;48.780;9.204;2022-12-18T16:05:29;-1.20;92.20
46488;DHT22;32202;48.780;9.204;2022-12-18T16:07:54;-1.30;92.50
46488;DHT22;32202;48.780;9.204;2022-12-18T16:10:20;-1.20;92.60
46488;DHT22;32202;48.780;9.204;2022-12-18T16:12:47;-1.20;92.40
46488;DHT22;32202;48.780;9.204;2022-12-18T16:15:14;-1.20;92.40
46488;DHT22;32202;48.780;9.204;2022-12-18T16:17:44;-1.30;92.80
46488;DHT22;32202;48.780;9.204;2022-12-18T16:20:19;-1.20;92.80
46488;DHT22;32202;48.780;9.204;2022-12-18T16:22:49;-1.10;92.60
46488;DHT22;32202;48.780;9.204;2022-12-18T16:25:25;-1.00;92.60
46488;DHT22;32202;48.780;9.204;2022-12-18T16:27:52;-1.00;92.10
46488;DHT22;32202;48.780;9.204;2022-12-18T16:30:21;-1.00;92.30
46488;DHT22;32202;48.780;9.204;2022-12-18T16:32:47;-1.00;92.20
46488;DHT22;32202;48.780;9.204;2022-12-18T16:35:15;-1.00;92.20
46488;DHT22;32202;48.780;9.204;2022-12-18T16:37:41;-1.10;92.30
46488;DHT22;32202;48.780;9.204;2022-12-18T16:40:09;-1.10;92.40
46488;DHT22;32202;48.780;9.204;2022-12-18T16:42:36;-1.20;92.90
46488;DHT22;32202;48.780;9.204;2022-12-18T16:45:03;-1.40;93.30
46488;DHT22;32202;48.780;9.204;2022-12-18T16:47:29;-1.50;93.50
46488;DHT22;32202;48.780;9.204;2022-12-18T16:49:58;-1.60;93.90
46488;DHT22;32202;48.780;9.204;2022-12-18T16:52:24;-1.60;94.50
46488;DHT22;32202;48.780;9.204;2022-12-18T16:54:49;-1.60;94.70
46488;DHT22;32202;48.780;9.204;2022-12-18T16:57:17;-1.60;94.70
46488;DHT22;32202;48.780;9.204;2022-12-18T16:59:46;-1.60;94.60
46488;DHT22;32202;48.780;9.204;2022-12-18T17:02:18;-1.50;94.60
46488;DHT22;32202;48.780;9.204;2022-12-18T17:04:44;-1.40;94.20
46488;DHT22;32202;48.780;9.204;2022-12-18T17:07:11;-1.40;93.90
46488;DHT22;32202;48.780;9.204;2022-12-18T17:09:37;-1.30;93.90
46488;DHT22;32202;48.780;9.204;2022-12-18T17:12:03;-1.20;95.40
46488;DHT22;32202;48.780;9.204;2022-12-18T17:14:32;-1.20;94.90
46488;DHT22;32202;48.780;9.204;2022-12-18T17:16:58;-1.10;94.90
46488;DHT22;32202;48.780;9.204;2022-12-18T17:19:25;-1.00;93.40
46488;DHT22;32202;48.780;9.204;2022-12-18T17:21:52;-1.10;93.10
46488;DHT22;32202;48.780;9.204;2022-12-18T17:24:18;-1.10;92.80
46488;DHT22;32202;48.780;9.204;2022-12-18T17:26:44;-1.00;92.60
46488;DHT22;32202;48.780;9.204;2022-12-18T17:29:18;-0.90;92.40
46488;DHT22;32202;48.780;9.204;2022-12-18T17:31:45;-0.90;92.70
46488;DHT22;32202;48.780;9.204;2022-12-18T17:34:12;-0.90;93.10
46488;DHT22;32202;48.780;9.204;2022-12-18T17:36:38;-0.70;92.10
46488;DHT22;32202;48.780;9.204;2022-12-18T17:39:04;-0.70;91.40
46488;DHT22;32202;48.780;9.204;2022-12-18T17:41:30;-0.60;91.40
46488;DHT22;32202;48.780;9.204;2022-12-18T17:44:04;-0.60;90.80
46488;DHT22;32202;48.780;9.204;2022-12-18T17:46:32;-0.60;90.80
46488;DHT22;32202;48.780;9.204;2022-12-18T17:48:59;-0.60;90.50
46488;DHT22;32202;48.780;9.204;2022-12-18T17:51:26;-0.60;90.00
46488;DHT22;32202;48.780;9.204;2022-12-18T17:53:52;-0.50;89.80
46488;DHT22;32202;48.780;9.204;2022-12-18T17:56:20;-0.50;89.60
46488;DHT22;32202;48.780;9.204;2022-12-18T17:58:46;-0.50;89.70